createdAt,value
2018-12-24T00:00:26.897Z,476.71
2018-12-24T00:01:26.876Z,478.69
2018-12-24T00:02:26.896Z,477.92
2018-12-24T00:03:26.869Z,483.49
2018-12-24T00:04:26.858Z,466.45
2018-12-24T00:05:26.961Z,476.98
2018-12-24T00:06:26.857Z,484.36
2018-12-24T00:07:26.872Z,484.66
2018-12-24T00:08:26.869Z,474.35
2018-12-24T00:09:26.854Z,467.56
2018-12-24T00:10:26.785Z,475.12
2018-12-24T00:11:26.788Z,470.32
2018-12-24T00:12:26.807Z,467.38
2018-12-24T00:13:26.785Z,474.15
2018-12-24T00:14:26.771Z,473.34
2018-12-24T00:15:26.740Z,480.38
2018-12-24T00:16:26.726Z,474.04
2018-12-24T00:17:26.720Z,464.91
2018-12-24T00:18:26.681Z,467.78
2018-12-24T00:19:26.678Z,476.27
2018-12-24T00:20:26.701Z,473.33
2018-12-24T00:21:26.679Z,463.78
2018-12-24T00:22:26.671Z,480.33
2018-12-24T00:23:26.647Z,472.38
2018-12-24T00:24:26.632Z,477.78
2018-12-24T00:25:26.661Z,476.20
2018-12-24T00:26:26.745Z,465.73
2018-12-24T00:27:26.625Z,464.13
2018-12-24T00:28:26.591Z,474.64
2018-12-24T00:29:26.619Z,459.82
2018-12-24T00:30:26.620Z,469.86
2018-12-24T00:31:26.568Z,461.44
2018-12-24T00:32:26.802Z,457.40
2018-12-24T00:33:26.541Z,463.34
2018-12-24T00:34:26.538Z,463.73
2018-12-24T00:35:26.607Z,461.21
2018-12-24T00:36:26.497Z,463.38
2018-12-24T00:37:26.557Z,458.28
2018-12-24T00:38:26.611Z,460.07
2018-12-24T00:39:26.483Z,457.73
2018-12-24T00:40:26.524Z,464.31
2018-12-24T00:41:26.461Z,456.75
2018-12-24T00:42:26.502Z,462.69
2018-12-24T00:43:26.458Z,460.67
2018-12-24T00:44:26.426Z,456.53
2018-12-24T00:45:26.508Z,457.83
2018-12-24T00:46:26.393Z,458.39
2018-12-24T00:47:26.490Z,458.66
2018-12-24T00:48:26.493Z,456.53
2018-12-24T00:49:26.367Z,458.68
2018-12-24T00:50:26.358Z,461.33
2018-12-24T00:51:26.348Z,461.45
2018-12-24T00:52:26.378Z,456.72
2018-12-24T00:53:26.380Z,460.18
2018-12-24T00:54:26.364Z,464.74
2018-12-24T00:55:26.331Z,460.17
2018-12-24T00:56:26.308Z,457.77
2018-12-24T00:57:26.346Z,462.03
2018-12-24T00:58:26.374Z,459.04
2018-12-24T00:59:26.454Z,465.13
2018-12-24T01:00:26.286Z,458.75
2018-12-24T01:01:26.383Z,461.18
2018-12-24T01:02:26.291Z,459.47
2018-12-24T01:03:26.279Z,458.21
2018-12-24T01:04:26.690Z,458.39
2018-12-24T01:05:26.230Z,457.81
2018-12-24T01:06:26.228Z,460.61
2018-12-24T01:07:26.189Z,463.76
2018-12-24T01:08:26.175Z,459.35
2018-12-24T01:09:26.202Z,463.22
2018-12-24T01:10:26.290Z,459.74
2018-12-24T01:11:26.143Z,459.31
2018-12-24T01:12:26.186Z,463.47
2018-12-24T01:13:26.159Z,463.06
2018-12-24T01:14:26.114Z,459.26
2018-12-24T01:15:26.199Z,459.91
2018-12-24T01:16:26.150Z,456.02
2018-12-24T01:17:26.096Z,457.29
2018-12-24T01:18:26.056Z,463.69
2018-12-24T01:19:26.136Z,456.78
2018-12-24T01:20:26.066Z,467.42
2018-12-24T01:21:26.068Z,464.64
2018-12-24T01:22:26.175Z,465.47
2018-12-24T01:23:26.015Z,458.18
2018-12-24T01:24:26.013Z,461.00
2018-12-24T01:25:26.062Z,461.57
2018-12-24T01:26:26.009Z,462.58
2018-12-24T01:27:26.046Z,462.60
2018-12-24T01:28:25.994Z,457.75
2018-12-24T01:29:25.931Z,459.27
2018-12-24T01:30:25.977Z,467.52
2018-12-24T01:31:25.949Z,460.49
2018-12-24T01:32:25.972Z,458.56
2018-12-24T01:33:25.986Z,455.72
2018-12-24T01:34:25.907Z,456.62
2018-12-24T01:35:25.890Z,462.25
2018-12-24T01:36:25.944Z,461.35
2018-12-24T01:37:25.991Z,464.06
2018-12-24T01:38:25.874Z,459.76
2018-12-24T01:39:25.948Z,459.87
2018-12-24T01:40:25.871Z,457.09
2018-12-24T01:41:25.869Z,465.03
2018-12-24T01:42:33.387Z,455.81
2018-12-24T01:43:26.907Z,457.27
2018-12-24T01:44:25.810Z,461.60
2018-12-24T01:45:25.840Z,461.66
2018-12-24T01:46:25.814Z,456.31
2018-12-24T01:47:25.787Z,466.57
2018-12-24T01:48:25.758Z,462.19
2018-12-24T01:49:25.770Z,456.62
2018-12-24T01:50:25.738Z,469.45
2018-12-24T01:51:25.715Z,464.74
2018-12-24T01:52:25.691Z,469.61
2018-12-24T01:53:25.701Z,457.27
2018-12-24T01:54:35.735Z,467.03
2018-12-24T01:55:26.476Z,463.76
2018-12-24T01:56:25.680Z,465.15
2018-12-24T01:57:25.684Z,461.01
2018-12-24T01:58:25.635Z,463.73
2018-12-24T01:59:25.644Z,460.18
2018-12-24T02:00:25.641Z,462.67
2018-12-24T02:01:25.629Z,458.74
2018-12-24T02:02:25.646Z,461.19
2018-12-24T02:03:25.586Z,458.88
2018-12-24T02:04:25.574Z,465.11
2018-12-24T02:05:25.579Z,461.07
2018-12-24T02:06:25.646Z,456.14
2018-12-24T02:07:25.879Z,463.31
2018-12-24T02:08:25.555Z,462.83
2018-12-24T02:09:25.531Z,461.75
2018-12-24T02:10:25.729Z,461.64
2018-12-24T02:11:27.240Z,462.00
2018-12-24T02:12:25.545Z,469.29
2018-12-24T02:13:25.689Z,457.38
2018-12-24T02:14:25.510Z,461.91
2018-12-24T02:15:26.512Z,466.93
2018-12-24T02:16:25.507Z,460.96
2018-12-24T02:17:25.859Z,463.37
2018-12-24T02:18:25.565Z,461.44
2018-12-24T02:19:25.462Z,462.70
2018-12-24T02:20:25.595Z,462.31
2018-12-24T02:21:25.533Z,463.40
2018-12-24T02:22:25.980Z,463.02
2018-12-24T02:23:25.432Z,462.95
2018-12-24T02:24:27.487Z,458.81
2018-12-24T02:25:25.389Z,461.03
2018-12-24T02:26:25.349Z,457.47
2018-12-24T02:27:25.342Z,469.29
2018-12-24T02:28:25.398Z,462.79
2018-12-24T02:29:25.322Z,469.26
2018-12-24T02:30:25.338Z,472.93
2018-12-24T02:31:25.338Z,464.45
2018-12-24T02:32:25.308Z,460.89
2018-12-24T02:33:25.329Z,460.94
2018-12-24T02:34:25.358Z,464.80
2018-12-24T02:35:26.891Z,458.43
2018-12-24T02:36:25.359Z,457.81
2018-12-24T02:37:25.279Z,464.44
2018-12-24T02:38:25.284Z,464.84
2018-12-24T02:39:25.286Z,459.58
2018-12-24T02:40:25.215Z,458.39
2018-12-24T02:41:25.212Z,460.76
2018-12-24T02:42:25.207Z,460.27
2018-12-24T02:43:25.201Z,464.41
2018-12-24T02:44:25.176Z,468.00
2018-12-24T02:45:25.142Z,462.82
2018-12-24T02:46:25.132Z,468.44
2018-12-24T02:47:25.158Z,470.54
2018-12-24T02:48:25.144Z,458.90
2018-12-24T02:49:25.119Z,457.60
2018-12-24T02:50:25.190Z,464.97
2018-12-24T02:51:25.130Z,461.02
2018-12-24T02:52:25.095Z,458.24
2018-12-24T02:53:25.083Z,467.10
2018-12-24T02:54:25.083Z,469.62
2018-12-24T02:55:25.060Z,463.63
2018-12-24T02:56:25.039Z,474.28
2018-12-24T02:57:25.010Z,473.60
2018-12-24T02:58:25.067Z,460.21
2018-12-24T02:59:25.015Z,466.04
2018-12-24T03:00:25.037Z,463.11
2018-12-24T03:01:25.007Z,462.53
2018-12-24T03:02:24.998Z,463.34
2018-12-24T03:03:24.972Z,464.07
2018-12-24T03:04:24.948Z,464.64
2018-12-24T03:05:24.928Z,463.14
2018-12-24T03:06:24.963Z,465.71
2018-12-24T03:07:24.913Z,469.43
2018-12-24T03:08:24.949Z,462.39
2018-12-24T03:09:24.882Z,466.85
2018-12-24T03:10:24.878Z,466.64
2018-12-24T03:11:24.880Z,462.91
2018-12-24T03:12:24.902Z,461.11
2018-12-24T03:13:24.906Z,468.68
2018-12-24T03:14:24.904Z,472.19
2018-12-24T03:15:24.829Z,472.31
2018-12-24T03:16:24.845Z,468.07
2018-12-24T03:17:24.838Z,467.44
2018-12-24T03:18:24.809Z,460.45
2018-12-24T03:19:24.827Z,472.17
2018-12-24T03:20:24.850Z,464.73
2018-12-24T03:21:24.754Z,462.09
2018-12-24T03:22:24.765Z,468.72
2018-12-24T03:23:24.804Z,467.05
2018-12-24T03:24:24.749Z,465.70
2018-12-24T03:25:24.753Z,468.83
2018-12-24T03:26:24.804Z,471.16
2018-12-24T03:27:24.731Z,470.33
2018-12-24T03:28:24.767Z,464.88
2018-12-24T03:29:24.694Z,466.03
2018-12-24T03:30:24.728Z,467.10
2018-12-24T03:31:24.667Z,474.20
2018-12-24T03:32:24.714Z,473.38
2018-12-24T03:33:24.858Z,466.46
2018-12-24T03:34:24.717Z,467.88
2018-12-24T03:35:24.661Z,469.26
2018-12-24T03:36:24.669Z,470.89
2018-12-24T03:37:24.604Z,479.24
2018-12-24T03:38:24.645Z,465.48
2018-12-24T03:39:24.595Z,464.24
2018-12-24T03:40:24.582Z,466.11
2018-12-24T03:41:24.620Z,473.83
2018-12-24T03:42:24.586Z,464.74
2018-12-24T03:43:24.593Z,470.21
2018-12-24T03:44:24.565Z,470.02
2018-12-24T03:45:24.551Z,471.32
2018-12-24T03:46:24.549Z,462.66
2018-12-24T03:47:24.503Z,468.21
2018-12-24T03:48:24.523Z,471.05
2018-12-24T03:49:24.572Z,476.71
2018-12-24T03:50:24.496Z,478.47
2018-12-24T03:51:24.469Z,485.00
2018-12-24T03:52:24.485Z,474.89
2018-12-24T03:53:24.456Z,473.67
2018-12-24T03:54:24.434Z,471.50
2018-12-24T03:55:24.421Z,466.03
2018-12-24T03:56:24.584Z,474.52
2018-12-24T03:57:24.447Z,479.57
2018-12-24T03:58:24.405Z,482.91
2018-12-24T03:59:24.524Z,472.80
2018-12-24T04:00:24.406Z,484.85
2018-12-24T04:01:24.389Z,470.37
2018-12-24T04:02:24.372Z,467.64
2018-12-24T04:03:24.371Z,476.99
2018-12-24T04:04:24.381Z,484.67
2018-12-24T04:05:24.341Z,476.63
2018-12-24T04:06:24.329Z,468.00
2018-12-24T04:07:24.305Z,468.88
2018-12-24T04:08:24.308Z,476.51
2018-12-24T04:09:24.294Z,472.22
2018-12-24T04:10:24.311Z,477.90
2018-12-24T04:11:24.361Z,468.61
2018-12-24T04:12:24.254Z,476.86
2018-12-24T04:13:24.435Z,473.19
2018-12-24T04:14:24.236Z,473.32
2018-12-24T04:15:24.571Z,473.23
2018-12-24T04:16:24.212Z,477.23
2018-12-24T04:17:24.312Z,472.74
2018-12-24T04:18:24.249Z,472.32
2018-12-24T04:19:24.217Z,467.83
2018-12-24T04:20:24.151Z,473.68
2018-12-24T04:21:24.178Z,470.68
2018-12-24T04:22:24.162Z,474.15
2018-12-24T04:23:24.126Z,468.49
2018-12-24T04:24:24.152Z,479.68
2018-12-24T04:25:24.224Z,480.57
2018-12-24T04:26:24.131Z,483.68
2018-12-24T04:27:24.087Z,469.02
2018-12-24T04:28:24.069Z,473.29
2018-12-24T04:29:24.162Z,477.17
2018-12-24T04:30:24.090Z,468.21
2018-12-24T04:31:25.128Z,474.28
2018-12-24T04:32:24.163Z,474.97
2018-12-24T04:33:24.092Z,473.35
2018-12-24T04:34:24.291Z,476.17
2018-12-24T04:35:24.197Z,465.93
2018-12-24T04:36:24.031Z,473.96
2018-12-24T04:37:24.070Z,476.83
2018-12-24T04:38:24.007Z,472.96
2018-12-24T04:39:23.993Z,470.12
2018-12-24T04:40:24.075Z,469.82
2018-12-24T04:41:23.968Z,475.70
2018-12-24T04:42:24.048Z,473.92
2018-12-24T04:43:31.843Z,483.18
2018-12-24T04:44:24.998Z,485.30
2018-12-24T04:45:23.901Z,474.90
2018-12-24T04:46:23.883Z,484.46
2018-12-24T04:47:23.923Z,481.91
2018-12-24T04:48:23.890Z,480.04
2018-12-24T04:49:23.902Z,478.92
2018-12-24T04:50:23.856Z,479.74
2018-12-24T04:51:23.927Z,482.84
2018-12-24T04:52:23.810Z,479.31
2018-12-24T04:53:23.931Z,480.06
2018-12-24T04:54:23.791Z,476.10
2018-12-24T04:55:23.815Z,475.99
2018-12-24T04:56:23.831Z,483.52
2018-12-24T04:57:23.784Z,481.76
2018-12-24T04:58:23.806Z,478.79
2018-12-24T04:59:23.750Z,485.18
2018-12-24T05:00:23.740Z,474.74
2018-12-24T05:01:23.829Z,482.61
2018-12-24T05:02:23.791Z,471.06
2018-12-24T05:03:23.718Z,472.36
2018-12-24T05:04:23.709Z,468.61
2018-12-24T05:05:23.742Z,478.03
2018-12-24T05:06:23.742Z,475.13
2018-12-24T05:07:23.715Z,486.93
2018-12-24T05:08:23.680Z,483.96
2018-12-24T05:09:23.655Z,468.50
2018-12-24T05:10:24.497Z,481.06
2018-12-24T05:11:23.623Z,472.25
2018-12-24T05:12:23.667Z,473.35
2018-12-24T05:13:23.660Z,478.20
2018-12-24T05:14:23.715Z,482.93
2018-12-24T05:15:23.655Z,473.98
2018-12-24T05:16:23.610Z,483.54
2018-12-24T05:17:23.572Z,476.20
2018-12-24T05:18:23.566Z,482.15
2018-12-24T05:19:23.610Z,484.98
2018-12-24T05:20:23.509Z,476.91
2018-12-24T05:21:23.550Z,480.70
2018-12-24T05:22:23.510Z,478.16
2018-12-24T05:23:23.522Z,471.29
2018-12-24T05:24:23.582Z,468.18
2018-12-24T05:25:23.536Z,486.16
2018-12-24T05:26:23.485Z,478.33
2018-12-24T05:27:23.474Z,485.13
2018-12-24T05:28:23.501Z,474.81
2018-12-24T05:29:23.441Z,481.57
2018-12-24T05:30:23.476Z,469.69
2018-12-24T05:31:23.481Z,481.75
2018-12-24T05:32:23.412Z,475.53
2018-12-24T05:33:23.419Z,482.76
2018-12-24T05:34:23.426Z,484.25
2018-12-24T05:35:23.475Z,481.44
2018-12-24T05:36:23.412Z,480.39
2018-12-24T05:37:23.373Z,476.98
2018-12-24T05:38:23.389Z,479.84
2018-12-24T05:39:23.360Z,474.90
2018-12-24T05:40:23.355Z,475.11
2018-12-24T05:41:23.379Z,483.51
2018-12-24T05:42:23.365Z,480.13
2018-12-24T05:43:23.333Z,483.61
2018-12-24T05:44:23.278Z,471.79
2018-12-24T05:45:23.276Z,472.67
2018-12-24T05:46:23.290Z,475.26
2018-12-24T05:47:23.271Z,484.53
2018-12-24T05:48:23.304Z,477.93
2018-12-24T05:49:23.238Z,477.50
2018-12-24T05:50:23.335Z,476.00
2018-12-24T05:51:23.315Z,472.93
2018-12-24T05:52:23.217Z,468.86
2018-12-24T05:53:23.215Z,469.06
2018-12-24T05:54:23.205Z,475.40
2018-12-24T05:55:23.194Z,482.27
2018-12-24T05:56:23.162Z,472.26
2018-12-24T05:57:23.158Z,475.76
2018-12-24T05:58:23.137Z,477.13
2018-12-24T05:59:23.123Z,477.93
2018-12-24T06:00:23.127Z,471.08
2018-12-24T06:01:23.175Z,479.56
2018-12-24T06:02:23.114Z,482.58
2018-12-24T06:03:23.107Z,476.24
2018-12-24T06:04:23.131Z,480.87
2018-12-24T06:05:23.096Z,480.27
2018-12-24T06:06:23.165Z,475.64
2018-12-24T06:07:23.138Z,480.23
2018-12-24T06:08:23.131Z,480.20
2018-12-24T06:09:23.109Z,473.97
2018-12-24T06:10:23.039Z,478.54
2018-12-24T06:11:23.092Z,479.04
2018-12-24T06:12:23.024Z,478.48
2018-12-24T06:13:23.024Z,476.94
2018-12-24T06:14:22.995Z,477.26
2018-12-24T06:15:23.341Z,476.75
2018-12-24T06:16:23.115Z,477.14
2018-12-24T06:17:22.970Z,475.30
2018-12-24T06:18:23.505Z,473.25
2018-12-24T06:19:22.985Z,473.86
2018-12-24T06:20:22.987Z,482.39
2018-12-24T06:21:22.909Z,475.34
2018-12-24T06:22:22.978Z,476.54
2018-12-24T06:23:23.010Z,479.82
2018-12-24T06:24:22.923Z,479.28
2018-12-24T06:25:22.880Z,474.53
2018-12-24T06:26:23.705Z,479.57
2018-12-24T06:27:22.902Z,478.04
2018-12-24T06:28:22.848Z,476.11
2018-12-24T06:29:23.077Z,476.41
2018-12-24T06:30:23.062Z,478.18
2018-12-24T06:31:22.885Z,475.83
2018-12-24T06:32:22.835Z,471.47
2018-12-24T06:33:22.816Z,478.66
2018-12-24T06:34:22.843Z,480.85
2018-12-24T06:35:22.772Z,475.60
2018-12-24T06:36:23.003Z,475.57
2018-12-24T06:37:22.802Z,478.44
2018-12-24T06:38:22.767Z,474.58
2018-12-24T06:39:23.027Z,476.69
2018-12-24T06:40:22.780Z,467.98
2018-12-24T06:41:22.762Z,478.60
2018-12-24T06:42:22.776Z,474.46
2018-12-24T06:43:22.677Z,477.04
2018-12-24T06:44:22.731Z,477.41
2018-12-24T06:45:22.692Z,478.16
2018-12-24T06:46:22.666Z,477.50
2018-12-24T06:47:22.663Z,476.52
2018-12-24T06:48:22.629Z,479.21
2018-12-24T06:49:22.718Z,478.36
2018-12-24T06:50:22.629Z,473.72
2018-12-24T06:51:22.608Z,472.46
2018-12-24T06:52:22.642Z,475.13
2018-12-24T06:53:22.628Z,480.34
2018-12-24T06:54:22.555Z,474.90
2018-12-24T06:55:22.576Z,478.33
2018-12-24T06:56:22.549Z,472.83
2018-12-24T06:57:22.624Z,474.08
2018-12-24T06:58:22.593Z,478.79
2018-12-24T06:59:22.514Z,473.20
2018-12-24T07:00:22.519Z,478.29
2018-12-24T07:01:22.908Z,471.58
2018-12-24T07:02:22.603Z,475.49
2018-12-24T07:03:22.529Z,480.26
2018-12-24T07:04:22.481Z,472.92
2018-12-24T07:05:22.570Z,483.19
2018-12-24T07:06:22.475Z,481.12
2018-12-24T07:07:22.516Z,476.45
2018-12-24T07:08:22.440Z,486.20
2018-12-24T07:09:22.484Z,473.20
2018-12-24T07:10:22.445Z,484.21
2018-12-24T07:11:22.724Z,481.32
2018-12-24T07:12:23.905Z,478.25
2018-12-24T07:13:22.355Z,474.43
2018-12-24T07:14:22.781Z,481.67
2018-12-24T07:15:22.437Z,478.11
2018-12-24T07:16:22.337Z,474.65
2018-12-24T07:17:22.356Z,480.61
2018-12-24T07:18:22.497Z,477.20
2018-12-24T07:19:23.313Z,483.90
2018-12-24T07:20:22.365Z,483.88
2018-12-24T07:21:22.386Z,478.23
2018-12-24T07:22:25.146Z,481.07
2018-12-24T07:23:22.318Z,481.73
2018-12-24T07:24:22.804Z,479.55
2018-12-24T07:25:22.246Z,479.00
2018-12-24T07:26:22.292Z,483.49
2018-12-24T07:27:22.243Z,483.51
2018-12-24T07:28:22.214Z,473.98
2018-12-24T07:29:22.198Z,483.02
2018-12-24T07:30:22.311Z,478.98
2018-12-24T07:31:22.275Z,479.69
2018-12-24T07:32:22.165Z,481.96
2018-12-24T07:33:22.212Z,478.35
2018-12-24T07:34:22.183Z,482.84
2018-12-24T07:35:22.155Z,483.56
2018-12-24T07:36:22.126Z,479.29
2018-12-24T07:37:22.288Z,483.68
2018-12-24T07:38:22.165Z,475.13
2018-12-24T07:39:22.534Z,478.49
2018-12-24T07:40:22.139Z,476.41
2018-12-24T07:41:22.073Z,479.14
2018-12-24T07:42:22.108Z,479.96
2018-12-24T07:43:22.124Z,480.84
2018-12-24T07:44:24.265Z,476.95
2018-12-24T07:45:22.062Z,485.41
2018-12-24T07:46:22.167Z,472.21
2018-12-24T07:47:22.063Z,483.97
2018-12-24T07:48:21.985Z,481.28
2018-12-24T07:49:22.165Z,480.98
2018-12-24T07:50:22.188Z,482.24
2018-12-24T07:51:22.170Z,483.40
2018-12-24T07:52:22.018Z,482.53
2018-12-24T07:53:21.981Z,479.31
2018-12-24T07:54:22.200Z,483.23
2018-12-24T07:55:27.546Z,484.49
2018-12-24T07:56:24.024Z,484.17
2018-12-24T07:57:21.974Z,483.51
2018-12-24T07:58:21.917Z,482.67
2018-12-24T07:59:21.893Z,482.00
2018-12-24T08:00:22.047Z,484.60
2018-12-24T08:01:21.890Z,481.62
2018-12-24T08:02:24.611Z,473.40
2018-12-24T08:03:21.921Z,480.54
2018-12-24T08:04:21.818Z,486.46
2018-12-24T08:05:21.823Z,482.68
2018-12-24T08:06:21.828Z,485.93
2018-12-24T08:07:21.801Z,482.76
2018-12-24T08:08:21.805Z,481.63
2018-12-24T08:09:21.879Z,487.01
2018-12-24T08:10:21.872Z,483.19
2018-12-24T08:11:21.802Z,483.69
2018-12-24T08:12:21.742Z,484.95
2018-12-24T08:13:21.793Z,483.17
2018-12-24T08:14:21.726Z,485.36
2018-12-24T08:15:21.764Z,482.10
2018-12-24T08:16:21.731Z,487.02
2018-12-24T08:17:21.697Z,478.72
2018-12-24T08:18:21.680Z,489.55
2018-12-24T08:19:21.716Z,487.61
2018-12-24T08:20:21.789Z,480.40
2018-12-24T08:21:21.663Z,485.40
2018-12-24T08:22:21.650Z,479.96
2018-12-24T08:23:21.652Z,488.70
2018-12-24T08:24:21.620Z,480.15
2018-12-24T08:25:21.611Z,484.38
2018-12-24T08:26:21.724Z,482.20
2018-12-24T08:27:21.646Z,486.74
2018-12-24T08:28:22.521Z,484.06
2018-12-24T08:29:21.595Z,480.35
2018-12-24T08:30:21.583Z,477.35
2018-12-24T08:31:21.643Z,482.68
2018-12-24T08:32:21.525Z,479.42
2018-12-24T08:33:21.560Z,479.67
2018-12-24T08:34:21.521Z,477.54
2018-12-24T08:35:21.518Z,478.66
2018-12-24T08:36:21.497Z,485.59
2018-12-24T08:37:21.486Z,484.45
2018-12-24T08:38:21.535Z,485.71
2018-12-24T08:39:21.462Z,480.09
2018-12-24T08:40:21.581Z,481.73
2018-12-24T08:41:22.098Z,483.44
2018-12-24T08:42:21.448Z,482.18
2018-12-24T08:43:22.110Z,478.79
2018-12-24T08:44:21.507Z,485.15
2018-12-24T08:45:21.485Z,478.94
2018-12-24T08:46:21.400Z,481.41
2018-12-24T08:47:21.387Z,475.44
2018-12-24T08:48:31.187Z,478.02
2018-12-24T08:49:21.387Z,474.65
2018-12-24T08:50:21.357Z,479.72
2018-12-24T08:51:30.649Z,482.42
2018-12-24T08:52:22.075Z,484.98
2018-12-24T08:53:21.341Z,478.48
2018-12-24T08:54:21.343Z,483.27
2018-12-24T08:55:21.327Z,480.58
2018-12-24T08:56:21.274Z,483.60
2018-12-24T08:57:21.331Z,482.32
2018-12-24T08:58:21.363Z,479.17
2018-12-24T08:59:22.080Z,481.45
2018-12-24T09:00:22.637Z,484.28
2018-12-24T09:01:21.351Z,476.52
2018-12-24T09:02:21.384Z,474.63
2018-12-24T09:03:21.220Z,476.65
2018-12-24T09:04:21.230Z,473.27
2018-12-24T09:05:21.376Z,480.69
2018-12-24T09:06:22.094Z,482.65
2018-12-24T09:07:22.080Z,478.61
2018-12-24T09:08:21.391Z,480.55
2018-12-24T09:09:22.678Z,476.13
2018-12-24T09:10:21.146Z,478.68
2018-12-24T09:11:21.533Z,479.66
2018-12-24T09:12:21.195Z,482.74
2018-12-24T09:13:21.178Z,476.66
2018-12-24T09:14:21.138Z,483.12
2018-12-24T09:15:21.173Z,481.44
2018-12-24T09:16:21.081Z,477.63
2018-12-24T09:17:23.685Z,471.47
2018-12-24T09:18:21.683Z,479.10
2018-12-24T09:19:21.076Z,480.09
2018-12-24T09:20:21.045Z,475.43
2018-12-24T09:21:21.138Z,476.13
2018-12-24T09:22:21.277Z,477.34
2018-12-24T09:23:20.999Z,479.38
2018-12-24T09:24:21.021Z,484.79
2018-12-24T09:25:20.993Z,481.05
2018-12-24T09:26:21.136Z,479.27
2018-12-24T09:27:21.005Z,478.39
2018-12-24T09:28:21.884Z,475.05
2018-12-24T09:29:20.949Z,478.33
2018-12-24T09:30:20.925Z,479.82
2018-12-24T09:31:21.121Z,473.83
2018-12-24T09:32:46.590Z,472.60
2018-12-24T09:33:42.205Z,469.74
2018-12-24T09:34:25.642Z,469.91
2018-12-24T09:36:03.189Z,474.83
2018-12-24T09:36:21.015Z,479.91
2018-12-24T09:37:20.910Z,474.74
2018-12-24T09:38:20.869Z,479.41
2018-12-24T09:39:21.025Z,473.83
2018-12-24T09:46:39.760Z,477.13
2018-12-24T09:47:39.746Z,476.11
2018-12-24T09:48:39.717Z,472.99
2018-12-24T09:49:39.705Z,477.84
2018-12-24T09:50:39.721Z,473.18
2018-12-24T09:51:39.714Z,473.46
2018-12-24T09:52:39.718Z,473.57
2018-12-24T09:53:39.652Z,474.84
2018-12-24T09:54:39.733Z,469.28
2018-12-24T09:55:39.693Z,472.70
2018-12-24T09:56:48.076Z,475.57
2018-12-24T09:57:39.604Z,469.82
2018-12-24T09:58:39.641Z,475.04
2018-12-24T09:59:39.615Z,473.58
2018-12-24T10:00:39.599Z,477.81
2018-12-24T10:01:39.577Z,474.32
2018-12-24T10:02:39.596Z,474.08
2018-12-24T10:03:39.576Z,472.55
2018-12-24T10:04:39.556Z,474.49
2018-12-24T10:05:39.607Z,475.69
2018-12-24T10:06:39.523Z,475.86
2018-12-24T10:07:40.357Z,472.75
2018-12-24T10:08:39.683Z,473.14
2018-12-24T10:09:39.502Z,469.18
2018-12-24T10:10:39.503Z,478.84
2018-12-24T10:11:39.486Z,474.19
2018-12-24T10:12:39.469Z,470.55
2018-12-24T10:13:39.487Z,468.83
2018-12-24T10:14:39.626Z,473.56
2018-12-24T10:15:39.472Z,470.13
2018-12-24T10:16:39.453Z,478.61
2018-12-24T10:17:39.439Z,474.40
2018-12-24T10:18:39.449Z,477.68
2018-12-24T10:19:39.461Z,473.46
2018-12-24T10:20:39.418Z,475.29
2018-12-24T10:21:39.453Z,473.52
2018-12-24T10:22:39.377Z,477.42
2018-12-24T10:23:39.426Z,477.96
2018-12-24T10:24:39.358Z,473.07
2018-12-24T10:25:39.353Z,471.42
2018-12-24T10:26:39.359Z,475.89
2018-12-24T10:27:39.392Z,475.92
2018-12-24T10:28:39.329Z,474.16
2018-12-24T10:29:39.299Z,473.29
2018-12-24T10:30:39.323Z,470.40
2018-12-24T10:31:39.295Z,472.31
2018-12-24T10:32:39.356Z,477.30
2018-12-24T10:33:39.334Z,473.55
2018-12-24T10:34:39.233Z,470.56
2018-12-24T10:35:39.746Z,474.41
2018-12-24T10:36:39.247Z,473.90
2018-12-24T10:37:39.258Z,472.04
2018-12-24T10:38:39.224Z,471.20
2018-12-24T10:39:39.221Z,475.38
2018-12-24T10:40:39.199Z,477.04
2018-12-24T10:41:39.245Z,475.35
2018-12-24T10:42:39.168Z,478.05
2018-12-24T10:43:39.196Z,476.22
2018-12-24T10:44:39.138Z,477.91
2018-12-24T10:45:39.159Z,474.17
2018-12-24T10:46:39.149Z,479.76
2018-12-24T10:47:39.171Z,476.11
2018-12-24T10:48:39.099Z,474.07
2018-12-24T10:49:39.113Z,477.86
2018-12-24T10:50:39.057Z,473.80
2018-12-24T10:51:39.072Z,476.10
2018-12-24T10:52:39.058Z,468.67
2018-12-24T10:53:39.145Z,472.23
2018-12-24T10:54:39.061Z,471.05
2018-12-24T10:55:39.064Z,480.84
2018-12-24T10:56:39.962Z,472.58
2018-12-24T10:57:39.007Z,471.92
2018-12-24T10:58:39.025Z,469.91
2018-12-24T10:59:38.980Z,475.79
2018-12-24T11:00:38.997Z,472.84
2018-12-24T11:01:44.708Z,475.81
2018-12-24T11:02:40.734Z,471.89
2018-12-24T11:03:38.953Z,474.54
2018-12-24T11:04:39.015Z,475.57
2018-12-24T11:05:38.950Z,472.11
2018-12-24T11:06:38.964Z,477.65
2018-12-24T11:07:38.894Z,477.37
2018-12-24T11:08:38.987Z,472.22
2018-12-24T11:09:38.886Z,472.13
2018-12-24T11:10:38.882Z,472.40
2018-12-24T11:11:38.881Z,473.25
2018-12-24T11:12:38.895Z,473.55
2018-12-24T11:13:39.668Z,474.11
2018-12-24T11:14:38.850Z,469.68
2018-12-24T11:15:38.927Z,474.42
2018-12-24T11:16:38.937Z,474.26
2018-12-24T11:17:38.851Z,466.65
2018-12-24T11:18:38.837Z,478.06
2018-12-24T11:19:38.817Z,475.04
2018-12-24T11:20:38.799Z,477.51
2018-12-24T11:21:38.799Z,473.55
2018-12-24T11:22:38.735Z,474.84
2018-12-24T11:23:38.740Z,470.37
2018-12-24T11:24:38.788Z,470.07
2018-12-24T11:25:38.710Z,474.90
2018-12-24T11:26:38.703Z,470.16
2018-12-24T11:27:38.732Z,467.57
2018-12-24T11:28:38.840Z,471.76
2018-12-24T11:29:38.653Z,475.08
2018-12-24T11:30:38.675Z,474.84
2018-12-24T11:31:38.646Z,474.29
2018-12-24T11:32:38.692Z,470.34
2018-12-24T11:33:38.645Z,470.31
2018-12-24T11:34:38.700Z,468.53
2018-12-24T11:35:38.703Z,469.13
2018-12-24T11:36:38.623Z,470.70
2018-12-24T11:37:38.583Z,474.05
2018-12-24T11:38:38.659Z,473.13
2018-12-24T11:39:38.582Z,469.91
2018-12-24T11:40:38.554Z,471.11
2018-12-24T11:41:38.558Z,472.99
2018-12-24T11:42:38.561Z,464.36
2018-12-24T11:43:38.539Z,474.76
2018-12-24T11:44:38.696Z,473.38
2018-12-24T11:45:38.643Z,471.29
2018-12-24T11:46:38.725Z,474.10
2018-12-24T11:47:38.499Z,476.37
2018-12-24T11:48:39.489Z,472.11
2018-12-24T11:49:38.467Z,473.22
2018-12-24T11:50:38.489Z,477.57
2018-12-24T11:51:38.456Z,474.53
2018-12-24T11:52:38.437Z,472.62
2018-12-24T11:53:38.444Z,471.38
2018-12-24T11:54:38.473Z,474.46
2018-12-24T11:55:38.390Z,478.30
2018-12-24T11:56:38.401Z,472.53
2018-12-24T11:57:38.422Z,474.43
2018-12-24T11:58:38.388Z,471.79
2018-12-24T11:59:38.377Z,473.06
2018-12-24T12:00:38.419Z,473.82
2018-12-24T12:01:38.359Z,472.58
2018-12-24T12:02:38.335Z,473.57
2018-12-24T12:03:38.312Z,476.62
2018-12-24T12:04:38.305Z,476.73
2018-12-24T12:05:38.402Z,473.62
2018-12-24T12:06:38.309Z,476.72
2018-12-24T12:07:38.299Z,474.28
2018-12-24T12:08:38.309Z,472.07
2018-12-24T12:09:38.253Z,475.25
2018-12-24T12:10:38.263Z,476.45
2018-12-24T12:11:38.519Z,473.25
2018-12-24T12:12:38.249Z,473.55
2018-12-24T12:13:38.232Z,475.17
2018-12-24T12:14:38.203Z,475.18
2018-12-24T12:15:42.511Z,472.04
2018-12-24T12:16:38.186Z,470.35
2018-12-24T12:17:38.228Z,472.11
2018-12-24T12:18:38.203Z,472.68
2018-12-24T12:19:38.269Z,472.04
2018-12-24T12:20:38.137Z,473.23
2018-12-24T12:21:38.115Z,475.66
2018-12-24T12:22:38.127Z,473.59
2018-12-24T12:23:38.118Z,474.72
2018-12-24T12:24:38.097Z,474.09
2018-12-24T12:25:38.083Z,476.81
2018-12-24T12:26:38.111Z,476.93
2018-12-24T12:27:38.087Z,476.22
2018-12-24T12:28:38.090Z,475.51
2018-12-24T12:29:38.067Z,474.95
2018-12-24T12:30:38.017Z,473.14
2018-12-24T12:31:38.026Z,474.72
2018-12-24T12:32:38.020Z,473.25
2018-12-24T12:33:38.025Z,475.98
2018-12-24T12:34:38.020Z,474.52